DW2770 Cefalu IT current weather conditions

sailwx.info

Wind from 112 at 1 knots gusting 2

Air temperature 24.4° C
Dewpoint 19.9° C

Last reported at 2014-Sep-21 04:51 UTC.
Time now 2014-Sep-21 06:05 UTC

Location: N 38°02' E 014°02'.
View on Google Maps.

See reports from other nearby stations

  
Tides and Currents Weather Stations Pressure Air Temp Water Temp Dewpoint Dewpoint Depression Visibility Wind Speed Wind Dir Waves Ship Positions
date/time (UTC)wind fromknots sea level pressurealtimeterstation pressurevisibilityair tempwater tempwave heightnotes
2014-Sep-21 04:51 112 1 gusting 2 24.4
2014-Sep-21 04:41 068 2 gusting 6 24.4
2014-Sep-21 04:31 068 5 gusting 6 24.4
2014-Sep-21 04:21 068 1 gusting 2 23.9
2014-Sep-21 04:11 23.3
2014-Sep-21 04:01 225 23.3
2014-Sep-21 03:51 180 23.3
2014-Sep-21 03:41 135 23.9
2014-Sep-21 03:31 135 23.9
2014-Sep-21 03:21 180 1 gusting 1 23.9
2014-Sep-21 03:11 180 24.4
2014-Sep-21 03:01 202 1 gusting 1 24.4
2014-Sep-21 02:51 202 1 gusting 1 24.4
2014-Sep-21 02:41 186 0 gusting 0 24.4
2014-Sep-21 02:31 202 24.4
2014-Sep-21 02:21 248 1 gusting 4 24.4
2014-Sep-21 02:11 241 1 gusting 4 24.4
2014-Sep-21 02:01 248 3 gusting 5 24.4
2014-Sep-21 01:51 248 4 gusting 5 24.4
2014-Sep-21 01:41 225 2 gusting 4 24.4
2014-Sep-21 01:31 225 1 gusting 2 24.4
2014-Sep-21 01:21 225 2 gusting 2 24.4
2014-Sep-21 01:11 216 1 gusting 1 25.0
2014-Sep-21 01:01 202 0 gusting 1 24.4
2014-Sep-21 00:51 202 0 gusting 1 24.4
2014-Sep-21 00:41 265 0 gusting 1 25.0
2014-Sep-21 00:31 202 25.0
2014-Sep-21 00:21 068 0 gusting 2 25.0
2014-Sep-21 00:11 175 24.4
2014-Sep-21 00:01 068 24.4
2014-Sep-20 23:51 090 0 gusting 1 24.4
2014-Sep-20 23:41 108 24.4
2014-Sep-20 23:31 184 24.4
2014-Sep-20 23:21 202 1 gusting 2 25.0
2014-Sep-20 23:11 240 0 gusting 1 25.0
2014-Sep-20 23:01 180 1 gusting 1 25.0
2014-Sep-20 22:51 202 1 gusting 1 25.0
2014-Sep-20 22:41 180 0 gusting 1 25.0
2014-Sep-20 22:31 180 1 gusting 1 24.4
2014-Sep-20 22:21 202 24.4
2014-Sep-20 22:11 202 24.4
2014-Sep-20 22:01 202 24.4
2014-Sep-20 21:51 202 25.0
2014-Sep-20 21:41 202 25.0
2014-Sep-20 21:31 188 2 gusting 2 25.0
2014-Sep-20 21:21 180 2 gusting 2 25.0
2014-Sep-20 21:11 180 2 gusting 4 25.0
2014-Sep-20 21:01 202 0 gusting 1 25.0
2014-Sep-20 20:51 202 1 gusting 1 25.0
2014-Sep-20 20:41 248 1 gusting 1 25.6
2014-Sep-20 20:31 202 25.6
2014-Sep-20 20:21 202 1 gusting 4 25.6
2014-Sep-20 20:11 202 2 gusting 4 25.6
2014-Sep-20 20:01 202 25.6
2014-Sep-20 19:51 202 1 gusting 1 25.6
2014-Sep-20 19:41 202 25.6
2014-Sep-20 19:31 273 25.6
2014-Sep-20 19:21 292 0 gusting 2 25.6
2014-Sep-20 19:11 202 1 gusting 4 26.1
2014-Sep-20 19:01 202 3 gusting 4 26.1
2014-Sep-20 18:51 180 26.1
2014-Sep-20 18:41 202 1 gusting 1 26.1
2014-Sep-20 18:31 259 26.1
2014-Sep-20 18:21 202 0 gusting 2 26.1
2014-Sep-20 18:11 202 1 gusting 2 26.1
2014-Sep-20 18:01 202 26.1
2014-Sep-20 17:51 202 0 gusting 0 26.1
2014-Sep-20 17:41 202 0 gusting 0 26.1
2014-Sep-20 17:31 045 26.1
2014-Sep-20 17:21 068 26.7
2014-Sep-20 17:11 068 26.7
2014-Sep-20 17:01 068 26.7
2014-Sep-20 16:51 068 26.7
2014-Sep-20 16:41 068 26.7
2014-Sep-20 16:31 068 0 gusting 2 27.2
2014-Sep-20 16:21 068 1 gusting 2 27.2
2014-Sep-20 16:11 068 27.2
2014-Sep-20 16:01 068 27.2
2014-Sep-20 15:51 045 1 gusting 2 27.2
2014-Sep-20 15:41 068 27.2
2014-Sep-20 15:31 090 0 gusting 1 27.2
2014-Sep-20 15:21 068 27.8
2014-Sep-20 15:11 068 27.2
2014-Sep-20 15:01 068 27.2
2014-Sep-20 14:51 112 1 gusting 2 27.2
2014-Sep-20 14:41 068 27.8
2014-Sep-20 14:31 087 0 gusting 0 27.2
2014-Sep-20 14:21 315 2 gusting 4 27.2
2014-Sep-20 14:11 090 1 gusting 4 27.2
2014-Sep-20 14:01 039 2 gusting 2 27.2
2014-Sep-20 13:51 068 2 gusting 5 27.8
2014-Sep-20 13:41 068 2 gusting 4 28.3
2014-Sep-20 13:31 055 4 gusting 6 28.3
2014-Sep-20 13:21 068 2 gusting 6 28.3
2014-Sep-20 13:11 068 3 gusting 5 28.3
2014-Sep-20 13:01 014 1 gusting 4 28.9
2014-Sep-20 12:51 292 1 gusting 2 28.3
2014-Sep-20 12:41 225 4 gusting 6 27.8
2014-Sep-20 12:31 292 4 gusting 4 28.3
2014-Sep-20 12:21 270 4 gusting 6 28.3
2014-Sep-20 12:11 225 2 gusting 5 27.8
2014-Sep-20 12:01 263 5 gusting 6 28.3
2014-Sep-20 11:51 292 1 gusting 6 28.3
2014-Sep-20 11:41 292 2 gusting 4 27.8
2014-Sep-20 11:31 338 1 gusting 2 28.3
2014-Sep-20 11:21 271 1 gusting 5 27.8
2014-Sep-20 11:11 315 2 gusting 5 28.3
2014-Sep-20 11:01 276 4 gusting 4 28.3
2014-Sep-20 10:51 271 3 gusting 4 28.3
2014-Sep-20 10:41 292 3 gusting 4 28.3
2014-Sep-20 10:31 326 2 gusting 4 27.8
2014-Sep-20 10:21 269 4 gusting 11 27.8
2014-Sep-20 10:11 315 7 gusting 11 27.8
2014-Sep-20 10:01 274 5 gusting 7 27.2
2014-Sep-20 09:51 292 4 gusting 7 27.8
2014-Sep-20 09:41 248 4 gusting 6 27.8
2014-Sep-20 09:31 302 6 gusting 6 28.3
2014-Sep-20 09:21 225 2 gusting 5 28.9
2014-Sep-20 09:11 068 28.3
2014-Sep-20 09:01 295 1 gusting 1 28.9
2014-Sep-20 08:51 067 1 gusting 2 28.3
2014-Sep-20 08:41 022 1 gusting 2 27.8
2014-Sep-20 08:31 053 2 gusting 2 27.8
2014-Sep-20 08:21 045 2 gusting 2 28.3
2014-Sep-20 08:11 202 2 gusting 2 28.3
2014-Sep-20 08:01 073 28.3
2014-Sep-20 07:51 049 1 gusting 1 28.3
2014-Sep-20 07:41 090 0 gusting 1 29.4
2014-Sep-20 07:21 248 1 gusting 1 27.8
2014-Sep-20 07:11 292 27.2
2014-Sep-20 07:01 248 1 gusting 6 27.2
2014-Sep-20 06:51 234 1 gusting 5 27.2
2014-Sep-20 06:41 202 2 gusting 2 27.8
2014-Sep-20 06:31 202 28.3
2014-Sep-20 06:21 090 0 gusting 1 27.8
2014-Sep-20 06:11 202 0 gusting 1 27.8
2014-Sep-20 06:01 202 27.2
2014-Sep-19 21:41 202 1 gusting 2 27.8
2014-Sep-19 21:31 202 27.8
2014-Sep-19 21:21 180 6 gusting 7 28.3
2014-Sep-19 21:11 202 4 gusting 6 28.3
2014-Sep-19 21:01 202 2 gusting 6 27.8
2014-Sep-19 20:51 202 1 gusting 2 28.3
2014-Sep-19 20:41 202 2 gusting 6 28.3
2014-Sep-19 20:31 202 3 gusting 4 28.3
2014-Sep-19 20:21 202 1 gusting 2 28.3
2014-Sep-19 20:01 202 1 gusting 2 28.9
2014-Sep-19 19:51 202 2 gusting 2 28.9
2014-Sep-19 19:41 224 1 gusting 2 28.9
2014-Sep-19 19:31 202 0 gusting 2 29.4
2014-Sep-19 19:21 202 2 gusting 4 28.9
2014-Sep-19 19:11 202 0 gusting 1 29.4
2014-Sep-19 19:01 195 1 gusting 2 29.4
2014-Sep-19 18:51 202 28.9
2014-Sep-19 18:41 202 28.9
2014-Sep-19 18:31 202 28.9
2014-Sep-19 18:21 068 2 gusting 4 28.9
2014-Sep-19 18:11 068 4 gusting 4 29.4
2014-Sep-19 18:01 090 1 gusting 2 29.4
2014-Sep-19 17:51 068 2 gusting 4 28.9
2014-Sep-19 17:41 068 2 gusting 4 28.9
2014-Sep-19 17:31 090 2 gusting 4 28.3
2014-Sep-19 17:21 090 2 gusting 2 28.3
2014-Sep-19 17:11 068 1 gusting 2 28.3
2014-Sep-19 17:01 090 4 gusting 5 28.9
2014-Sep-19 16:51 068 4 gusting 5 29.4
2014-Sep-19 16:41 068 3 gusting 6 29.4
2014-Sep-19 16:31 068 6 gusting 6 29.4
2014-Sep-19 16:21 068 2 gusting 5 30.0
2014-Sep-19 16:11 094 3 gusting 6 30.0
2014-Sep-19 16:01 068 2 gusting 4 30.6
2014-Sep-19 15:51 068 3 gusting 6 30.6
2014-Sep-19 15:41 068 2 gusting 4 30.6
2014-Sep-19 15:31 045 4 gusting 4 31.1
2014-Sep-19 15:21 068 3 gusting 4 31.1
2014-Sep-19 15:11 068 2 gusting 4 31.1
2014-Sep-19 15:01 066 4 gusting 5 30.6
2014-Sep-19 14:51 090 4 gusting 5 31.1
2014-Sep-19 14:41 057 4 gusting 6 31.1
2014-Sep-19 14:31 069 3 gusting 6 31.1
2014-Sep-19 14:21 068 3 gusting 5 31.1
2014-Sep-19 14:11 045 5 gusting 7 31.1
2014-Sep-19 14:01 108 5 gusting 7 31.1
2014-Sep-19 13:51 090 4 gusting 6 31.1
2014-Sep-19 13:41 068 5 gusting 6 31.1
2014-Sep-19 13:31 052 6 gusting 6 31.1
2014-Sep-19 13:21 090 3 gusting 6 30.6
2014-Sep-19 13:11 047 6 gusting 6 30.6
2014-Sep-19 13:01 049 5 gusting 5 30.6
2014-Sep-19 12:51 068 4 gusting 6 30.0
2014-Sep-19 12:41 068 5 gusting 6 29.4
2014-Sep-19 12:31 049 5 gusting 6 30.0
2014-Sep-19 12:21 068 4 gusting 5 30.0
2014-Sep-19 12:11 068 2 gusting 6 30.6
2014-Sep-19 12:01 062 6 gusting 6 30.6
2014-Sep-19 11:51 045 2 gusting 4 31.7
2014-Sep-19 11:41 068 1 gusting 4 32.2
2014-Sep-19 11:31 068 1 gusting 4 32.2
2014-Sep-19 11:21 068 2 gusting 4 32.2
2014-Sep-19 11:11 068 4 gusting 6 31.7
2014-Sep-19 11:01 068 6 gusting 6 31.7
2014-Sep-19 10:51 068 3 gusting 6 31.7
2014-Sep-19 10:41 090 3 gusting 4 31.1
2014-Sep-19 10:31 068 4 gusting 4 31.1
2014-Sep-19 10:21 068 2 gusting 4 30.6
2014-Sep-19 10:11 202 0 gusting 2 31.1
2014-Sep-19 10:01 248 30.6
2014-Sep-19 09:51 202 30.0
2014-Sep-19 09:41 090 2 gusting 2 30.0
2014-Sep-19 09:31 068 1 gusting 2 30.0
2014-Sep-19 09:21 045 0 gusting 2 29.4
2014-Sep-19 09:11 068 1 gusting 5 28.9
2014-Sep-19 09:01 068 5 gusting 5 28.9
2014-Sep-19 08:51 068 2 gusting 2 29.4
2014-Sep-19 08:41 045 30.6
2014-Sep-19 08:31 081 2 gusting 4 30.6
2014-Sep-19 08:21 292 1 gusting 1 30.6
2014-Sep-19 08:11 202 30.0
2014-Sep-19 08:01 290 30.0
2014-Sep-19 07:51 202 0 gusting 2 29.4
2014-Sep-19 07:41 225 0 gusting 2 28.9
2014-Sep-19 07:31 225 1 gusting 5 28.3
2014-Sep-19 07:21 225 2 gusting 5 28.3
2014-Sep-19 07:11 270 3 gusting 6 28.3
2014-Sep-19 07:01 238 2 gusting 4 27.8
2014-Sep-19 06:51 292 2 gusting 2 27.8
2014-Sep-19 06:41 270 27.8
2014-Sep-19 06:31 270 1 gusting 2 27.8
2014-Sep-19 06:21 248 1 gusting 2 28.3
2014-Sep-19 06:11 225 2 gusting 2 28.3
2014-Sep-19 06:01 225 28.3